Time,TemperatureF,DewpointF,PressureIn,WindDirection,WindDirectionDegrees,WindSpeedMPH,WindSpeedGustMPH,Humidity,HourlyPrecipIn,Conditions,Clouds,dailyrainin,SoftwareType,DateUTC
2013-02-07 00:00:00,23.0,-99.9,-100.00,SW,226,4.0,9.0,-999,-99.99,,,0.00,,2013-02-07 05:00:00,
2013-02-07 00:52:00,23.0,-99.9,-100.00,SW,226,4.0,9.0,-999,-99.99,,,0.00,,2013-02-07 05:52:00,
2013-02-07 02:00:00,23.0,-99.9,-100.00,SSW,213,5.0,11.0,-999,-99.99,,,0.00,,2013-02-07 07:00:00,
2013-02-07 02:53:00,23.0,-99.9,-100.00,SSW,213,5.0,11.0,-999,-99.99,,,0.00,,2013-02-07 07:53:00,
2013-02-07 05:00:00,26.0,-99.9,-100.00,South,178,7.0,11.0,-999,-99.99,,,0.00,,2013-02-07 10:00:00,
2013-02-07 05:52:00,26.0,-99.9,-100.00,South,178,7.0,11.0,-999,-99.99,,,0.00,,2013-02-07 10:52:00,
2013-02-07 06:00:00,24.0,-99.9,-100.00,SSE,160,6.0,11.0,-999,-99.99,,,-99.99,,2013-02-07 11:00:00,
2013-02-07 06:53:00,24.0,-99.9,-100.00,SSE,160,6.0,11.0,-999,-99.99,,,-99.99,,2013-02-07 11:53:00,
2013-02-07 07:00:00,24.0,-99.9,-100.00,SSE,166,4.0,8.0,-999,-99.99,,,0.00,,2013-02-07 12:00:00,
2013-02-07 07:53:00,24.0,-99.9,-100.00,SSE,166,4.0,8.0,-999,-99.99,,,0.00,,2013-02-07 12:53:00,
2013-02-07 08:00:00,-999.0,-99.9,-100.00,SE,136,3.0,8.0,-999,-99.99,,,-99.99,,2013-02-07 13:00:00,
2013-02-07 08:52:00,-999.0,-99.9,-100.00,SE,136,3.0,8.0,-999,-99.99,,,-99.99,,2013-02-07 13:52:00,
2013-02-07 09:00:00,25.0,-99.9,-100.00,East,88,3.0,6.0,-999,-99.99,,,0.00,,2013-02-07 14:00:00,
2013-02-07 09:52:00,25.0,-99.9,-100.00,East,88,3.0,6.0,-999,-99.99,,,0.00,,2013-02-07 14:52:00,
2013-02-07 10:00:00,26.0,-99.9,-100.00,North,-999,-999.0,-999.0,-999,-99.99,,,-99.99,,2013-02-07 15:00:00,
2013-02-07 10:53:00,26.0,-99.9,-100.00,North,-999,-999.0,-999.0,-999,-99.99,,,-99.99,,2013-02-07 15:53:00,
2013-02-07 11:00:00,26.0,-99.9,-100.00,SSE,154,6.0,10.0,-999,-99.99,,,0.00,,2013-02-07 16:00:00,
2013-02-07 11:52:00,26.0,-99.9,-100.00,SSE,154,6.0,10.0,-999,-99.99,,,0.00,,2013-02-07 16:52:00,
2013-02-07 12:00:00,28.0,-99.9,-100.00,South,180,5.0,10.0,-999,-99.99,,,0.00,,2013-02-07 17:00:00,
2013-02-07 12:52:00,28.0,-99.9,-100.00,South,180,5.0,10.0,-999,-99.99,,,0.00,,2013-02-07 17:52:00,
2013-02-07 13:00:00,28.0,-99.9,-100.00,South,180,5.0,10.0,-999,-99.99,,,0.00,,2013-02-07 18:00:00,
2013-02-07 13:52:00,28.0,-99.9,-100.00,South,180,5.0,10.0,-999,-99.99,,,0.00,,2013-02-07 18:52:00,
2013-02-07 14:00:00,29.0,-99.9,-100.00,South,191,6.0,10.0,-999,-99.99,,,-99.99,,2013-02-07 19:00:00,
2013-02-07 15:00:00,29.0,-99.9,-100.00,South,190,9.0,13.0,-999,-99.99,,,0.00,,2013-02-07 20:00:00,
2013-02-07 15:52:00,29.0,-99.9,-100.00,South,190,9.0,13.0,-999,-99.99,,,0.00,,2013-02-07 20:52:00,
2013-02-07 17:00:00,31.0,-99.9,-100.00,SSW,196,11.0,17.0,-999,-99.99,,,0.00,,2013-02-07 22:00:00,
2013-02-07 19:00:00,28.0,-99.9,-100.00,South,171,10.0,19.0,-999,-99.99,,,-99.99,,2013-02-08 00:00:00,
2013-02-07 19:53:00,28.0,-99.9,-100.00,South,171,10.0,19.0,-999,-99.99,,,-99.99,,2013-02-08 00:53:00,
2013-02-07 21:00:00,27.0,-99.9,-100.00,SSE,166,7.0,14.0,-999,-99.99,,,0.00,,2013-02-08 02:00:00,
2013-02-07 21:53:00,27.0,-99.9,-100.00,SSE,166,7.0,14.0,-999,-99.99,,,0.00,,2013-02-08 02:53:00,
2013-02-07 22:00:00,26.0,-99.9,-100.00,South,176,7.0,13.0,-999,-99.99,,,0.00,,2013-02-08 03:00:00,
2013-02-07 22:52:00,26.0,-99.9,-100.00,South,176,7.0,13.0,-999,-99.99,,,0.00,,2013-02-08 03:52:00,
2013-02-07 23:00:00,24.0,-99.9,-100.00,SSW,205,5.0,10.0,-999,-99.99,,,-99.99,,2013-02-08 04:00:00,
2013-02-07 23:52:00,24.0,-99.9,-100.00,SSW,205,5.0,10.0,-999,-99.99,,,-99.99,,2013-02-08 04:52:00,